Time;durP1;ratioP1;P1;durP2;ratioP2;P2;SDS_P1;SDS_P2;PMS_P1;PMS_P2;Temp;Humidity;BMP_temperature;BMP_pressure;BME280_temperature;BME280_humidity;BME280_pressure;Samples;Min_cycle;Max_cycle;Signal;HPM_P1;HPM_P2
2022/03/03 00:00:29;;;;;;;83.70;35.30;;;;;;;-1.33;99.10;102482.19;5054377;28;20435;-48
2022/03/03 00:02:57;;;;;;;97.03;41.57;;;;;;;-1.34;99.25;102476.09;5054118;28;20431;-43
2022/03/03 00:05:25;;;;;;;85.83;40.23;;;;;;;-1.36;99.01;102482.34;5052843;28;21049;-45
2022/03/03 00:07:52;;;;;;;41.97;33.87;;;;;;;-1.40;99.06;102489.50;5053748;28;20471;-45
2022/03/03 00:10:20;;;;;;;171.37;52.60;;;;;;;-1.43;98.94;102478.34;5054359;28;20445;-47
2022/03/03 00:12:48;;;;;;;142.10;40.90;;;;;;;-1.44;99.20;102477.50;5054131;28;20526;-44
2022/03/03 00:15:17;;;;;;;49.00;37.83;;;;;;;-1.42;99.02;102480.03;5052848;28;20991;-46
2022/03/03 00:17:44;;;;;;;79.90;38.93;;;;;;;-1.42;98.83;102474.81;5053692;28;20435;-44
2022/03/03 00:20:12;;;;;;;148.80;44.87;;;;;;;-1.44;99.04;102467.03;5054160;28;20443;-46
2022/03/03 00:22:40;;;;;;;45.57;35.73;;;;;;;-1.43;98.68;102454.78;5053601;28;20438;-44
2022/03/03 00:25:08;;;;;;;74.27;34.30;;;;;;;-1.43;98.62;102468.72;5052805;28;20469;-47
2022/03/03 00:27:36;;;;;;;115.60;41.43;;;;;;;-1.46;99.52;102468.03;5053735;28;20883;-44
2022/03/03 00:30:04;;;;;;;86.83;39.80;;;;;;;-1.46;98.97;102470.63;5054018;28;20514;-45
2022/03/03 00:32:40;;;;;;;50.50;33.50;;;;;;;-1.48;98.96;102477.72;5053691;28;20442;-47
2022/03/03 00:35:09;;;;;;;71.67;36.00;;;;;;;-1.50;98.92;102479.59;5052584;28;20496;-44
2022/03/03 00:37:37;;;;;;;195.53;53.13;;;;;;;-1.53;98.62;102477.97;5053753;28;20820;-43
2022/03/03 00:40:06;;;;;;;94.50;40.03;;;;;;;-1.62;98.89;102477.59;5053610;28;20999;-45
2022/03/03 00:42:34;;;;;;;49.80;36.03;;;;;;;-1.60;99.26;102470.50;5053584;28;20473;-45
2022/03/03 00:45:01;;;;;;;102.30;39.07;;;;;;;-1.60;98.90;102467.88;5052520;28;20458;-45
2022/03/03 00:47:30;;;;;;;59.60;37.80;;;;;;;-1.61;98.68;102458.34;5053322;28;20435;-43
2022/03/03 00:49:59;;;;;;;69.40;39.60;;;;;;;-1.64;99.03;102461.13;5053703;28;20511;-47
2022/03/03 00:52:27;;;;;;;121.37;43.63;;;;;;;-1.63;98.48;102453.19;5053664;28;20438;-44
2022/03/03 00:54:54;;;;;;;197.10;46.90;;;;;;;-1.65;98.63;102449.81;5052550;28;20475;-45
2022/03/03 00:57:22;;;;;;;186.63;47.40;;;;;;;-1.65;99.19;102452.44;5052941;28;20435;-47
2022/03/03 00:59:49;;;;;;;95.93;39.30;;;;;;;-1.64;98.95;102456.72;5053425;28;20808;-43
2022/03/03 01:02:17;;;;;;;83.53;38.57;;;;;;;-1.67;98.67;102452.50;5053031;28;20445;-45
2022/03/03 01:04:45;;;;;;;203.27;49.43;;;;;;;-1.69;98.78;102462.19;5052498;28;20467;-46
2022/03/03 01:07:14;;;;;;;121.13;40.57;;;;;;;-1.69;98.90;102456.97;5052769;28;20946;-45
2022/03/03 01:09:41;;;;;;;182.57;42.50;;;;;;;-1.73;98.83;102460.63;5053316;28;20485;-43
2022/03/03 01:12:10;;;;;;;206.10;46.93;;;;;;;-1.71;98.66;102450.97;5053162;28;20441;-44
2022/03/03 01:14:37;;;;;;;171.93;43.10;;;;;;;-1.72;99.12;102453.66;5052057;28;21048;-44
2022/03/03 01:17:05;;;;;;;252.30;48.03;;;;;;;-1.75;98.62;102456.41;5052932;28;20932;-45
2022/03/03 01:19:33;;;;;;;186.20;41.97;;;;;;;-1.75;98.92;102446.81;5053047;28;20467;-47
2022/03/03 01:22:00;;;;;;;231.93;50.43;;;;;;;-1.76;98.94;102452.09;5052972;28;20924;-46
2022/03/03 01:24:30;;;;;;;140.40;46.53;;;;;;;-1.78;98.68;102456.56;5052423;28;20473;-44
2022/03/03 01:26:58;;;;;;;193.00;40.13;;;;;;;-1.79;98.67;102447.88;5053216;28;20514;-43
2022/03/03 01:29:26;;;;;;;298.17;59.77;;;;;;;-1.78;98.35;102446.94;5052693;28;20494;-44
2022/03/03 01:31:53;;;;;;;134.93;42.03;;;;;;;-1.77;98.19;102450.41;5053122;28;20435;-47
2022/03/03 01:34:21;;;;;;;137.50;40.00;;;;;;;-1.80;98.70;102443.56;5051957;28;20459;-49
2022/03/03 01:36:49;;;;;;;119.80;38.40;;;;;;;-1.82;98.36;102442.78;5052347;28;20928;-43
2022/03/03 01:39:17;;;;;;;187.43;52.70;;;;;;;-1.84;98.40;102443.78;5052895;28;20865;-45
2022/03/03 01:41:46;;;;;;;99.73;36.20;;;;;;;-1.85;98.54;102452.56;5052337;28;20439;-47
2022/03/03 01:44:13;;;;;;;136.07;42.87;;;;;;;-1.86;98.34;102454.34;5052155;28;20463;-44
2022/03/03 01:46:49;;;;;;;183.83;42.30;;;;;;;-1.89;98.89;102446.66;5052093;28;20518;-45
2022/03/03 01:49:17;;;;;;;77.30;36.80;;;;;;;-1.91;98.52;102445.03;5052484;28;20506;-45
2022/03/03 01:51:45;;;;;;;150.43;47.80;;;;;;;-1.93;98.50;102452.09;5052081;28;20438;-45
2022/03/03 01:54:13;;;;;;;104.17;36.57;;;;;;;-1.99;98.67;102448.00;5051739;28;20463;-47
2022/03/03 01:56:41;;;;;;;71.20;34.70;;;;;;;-2.03;98.63;102449.06;5052020;28;20435;-44
2022/03/03 01:59:11;;;;;;;117.57;35.60;;;;;;;-2.05;99.03;102452.69;5052162;28;20462;-45
2022/03/03 02:01:39;;;;;;;134.60;39.87;;;;;;;-2.09;98.61;102444.13;5052174;28;20518;-46
2022/03/03 02:04:10;;;;;;;176.20;38.37;;;;;;;-2.10;99.01;102446.84;5051499;28;20490;-43
2022/03/03 02:06:38;;;;;;;91.57;38.30;;;;;;;-2.12;99.05;102443.47;5052368;28;20442;-44
2022/03/03 02:09:06;;;;;;;63.77;34.60;;;;;;;-2.12;98.56;102448.69;5052603;28;20507;-44
2022/03/03 02:11:34;;;;;;;105.83;39.67;;;;;;;-2.14;98.75;102450.50;5052422;28;20445;-44
2022/03/03 02:14:03;;;;;;;91.00;38.27;;;;;;;-2.13;98.51;102445.22;5051807;28;20561;-44
2022/03/03 02:16:33;;;;;;;144.87;40.40;;;;;;;-2.12;98.26;102428.59;5051825;28;20518;-43
2022/03/03 02:19:00;;;;;;;146.53;49.20;;;;;;;-2.12;98.34;102440.84;5051785;28;20471;-47
2022/03/03 02:21:30;;;;;;;52.43;35.47;;;;;;;-2.11;98.77;102435.53;5051953;28;20438;-44
2022/03/03 02:23:58;;;;;;;165.10;44.53;;;;;;;-2.13;98.70;102426.91;5050999;28;20461;-44
2022/03/03 02:26:26;;;;;;;92.53;41.10;;;;;;;-2.12;98.45;102423.38;5051435;28;20526;-45
2022/03/03 02:28:54;;;;;;;98.10;38.57;;;;;;;-2.11;98.37;102427.69;5051704;28;20463;-43
2022/03/03 02:31:22;;;;;;;118.23;38.30;;;;;;;-2.08;98.04;102427.53;5052039;28;20419;-44
2022/03/03 02:33:50;;;;;;;114.07;40.63;;;;;;;-2.05;98.35;102423.91;5051094;28;20467;-43
2022/03/03 02:36:21;;;;;;;120.33;40.33;;;;;;;-2.05;97.92;102418.69;5051159;28;20966;-43
2022/03/03 02:38:56;;;;;;;105.17;38.27;;;;;;;-2.01;98.14;102418.50;5051694;28;20504;-43
2022/03/03 02:41:26;;;;;;;273.10;56.33;;;;;;;-1.98;97.86;102412.25;5051811;28;20538;-43
2022/03/03 02:43:54;;;;;;;199.27;47.83;;;;;;;-1.99;97.98;102414.03;5050568;28;20462;-44
2022/03/03 02:46:21;;;;;;;85.87;38.33;;;;;;;-1.98;98.39;102402.66;5050655;28;20507;-43
2022/03/03 02:48:49;;;;;;;232.53;45.97;;;;;;;-1.95;97.93;102401.66;5050906;28;20465;-45
2022/03/03 02:51:17;;;;;;;169.10;41.67;;;;;;;-1.94;98.18;102404.16;5051667;28;20475;-43
2022/03/03 02:53:46;;;;;;;198.50;46.07;;;;;;;-1.94;97.70;102405.97;5051053;28;21011;-43
2022/03/03 02:56:16;;;;;;;152.23;45.40;;;;;;;-1.93;97.90;102405.88;5050983;28;20435;-43
2022/03/03 02:58:43;;;;;;;123.70;44.40;;;;;;;-1.92;97.97;102407.56;5050970;28;20466;-43
2022/03/03 03:01:11;;;;;;;98.43;38.83;;;;;;;-1.92;98.23;102402.34;5051388;28;20432;-43
2022/03/03 03:03:39;;;;;;;187.40;49.33;;;;;;;-1.95;98.34;102389.44;5054147;28;20458;-44
2022/03/03 03:06:07;;;;;;;55.60;37.97;;;;;;;-1.97;98.16;102378.19;5055098;28;20461;-44
2022/03/03 03:08:35;;;;;;;131.90;45.53;;;;;;;-2.00;98.33;102380.13;5055090;28;20451;-43
2022/03/03 03:11:02;;;;;;;96.47;46.50;;;;;;;-2.02;98.45;102389.78;5055398;28;20561;-44
2022/03/03 03:13:31;;;;;;;86.27;40.07;;;;;;;-2.05;98.26;102374.25;5054513;28;20438;-44
2022/03/03 03:15:59;;;;;;;105.37;43.57;;;;;;;-2.06;98.25;102376.03;5054595;28;20427;-46
2022/03/03 03:18:26;;;;;;;127.87;42.47;;;;;;;-2.10;98.27;102377.13;5054445;28;20474;-43
2022/03/03 03:20:54;;;;;;;220.63;54.17;;;;;;;-2.12;98.37;102370.28;5055370;28;20435;-45
2022/03/03 03:23:24;;;;;;;106.30;41.50;;;;;;;-2.16;98.54;102377.41;5061151;22;20496;-41
2022/03/03 03:25:52;;;;;;;148.80;47.33;;;;;;;-2.21;98.52;102376.78;5033930;28;20432;-44
2022/03/03 03:28:21;;;;;;;64.57;39.80;;;;;;;-2.26;99.08;102371.78;5034970;28;20526;-43
2022/03/03 03:30:51;;;;;;;55.27;40.27;;;;;;;-2.31;98.62;102371.19;5034898;28;20480;-45
2022/03/03 03:33:19;;;;;;;37.80;33.93;;;;;;;-2.34;98.87;102380.91;5034267;28;20507;-46
2022/03/03 03:35:46;;;;;;;38.40;34.60;;;;;;;-2.40;98.79;102376.00;5034002;28;20944;-46
2022/03/03 03:38:14;;;;;;;40.73;36.43;;;;;;;-2.46;98.59;102371.91;5034264;28;20446;-43
2022/03/03 03:40:42;;;;;;;36.93;33.07;;;;;;;-2.48;98.89;102371.13;5034581;28;20432;-47
2022/03/03 03:43:09;;;;;;;36.23;32.60;;;;;;;-2.53;98.69;102367.88;5034052;28;20462;-41
2022/03/03 03:45:37;;;;;;;39.40;33.70;;;;;;;-2.57;98.44;102362.91;5033209;28;20440;-44
2022/03/03 03:48:06;;;;;;;36.07;31.43;;;;;;;-2.59;98.98;102351.66;5034130;28;20463;-43
2022/03/03 03:50:34;;;;;;;32.93;29.47;;;;;;;-2.65;99.22;102354.56;5034608;28;20494;-42
2022/03/03 03:53:01;;;;;;;33.50;28.97;;;;;;;-2.69;98.74;102356.50;5033979;28;20451;-45
2022/03/03 03:55:29;;;;;;;31.03;28.10;;;;;;;-2.75;99.13;102353.31;5033010;28;20459;-48
2022/03/03 03:57:57;;;;;;;32.73;29.33;;;;;;;-2.78;99.28;102354.31;5034202;28;20438;-47
2022/03/03 04:00:24;;;;;;;31.70;28.80;;;;;;;-2.80;99.29;102349.16;5034462;28;20432;-46
2022/03/03 04:02:52;;;;;;;30.53;27.60;;;;;;;-2.80;99.27;102343.09;5034121;28;20455;-46
2022/03/03 04:05:21;;;;;;;29.47;26.63;;;;;;;-2.86;99.26;102343.38;5032997;28;20463;-50
2022/03/03 04:07:49;;;;;;;31.63;27.60;;;;;;;-2.89;99.25;102336.53;5033005;28;20439;-44
2022/03/03 04:10:17;;;;;;;33.50;30.00;;;;;;;-2.93;99.17;102336.75;5033525;28;20999;-46
2022/03/03 04:12:44;;;;;;;35.70;29.97;;;;;;;-2.96;99.44;102329.06;5032936;28;20452;-46
2022/03/03 04:15:13;;;;;;;35.93;31.00;;;;;;;-3.00;99.50;102337.94;5032738;28;20467;-47
2022/03/03 04:17:40;;;;;;;31.23;27.83;;;;;;;-3.02;99.35;102330.22;5033046;28;20515;-46
2022/03/03 04:20:09;;;;;;;30.10;27.10;;;;;;;-3.02;99.34;102329.34;5033212;28;20959;-47
2022/03/03 04:22:39;;;;;;;31.40;28.20;;;;;;;-3.04;99.19;102326.81;5033180;28;20455;-47
2022/03/03 04:25:10;;;;;;;29.53;26.57;;;;;;;-3.02;99.54;102311.09;5032465;28;20468;-49
2022/03/03 04:27:38;;;;;;;30.00;27.20;;;;;;;-3.04;99.70;102295.47;5033080;28;20801;-48
2022/03/03 04:30:09;;;;;;;30.10;27.50;;;;;;;-3.04;99.31;102290.25;5033173;28;20436;-49
2022/03/03 04:32:38;;;;;;;31.13;27.93;;;;;;;-3.02;99.43;102293.66;5032463;28;20452;-45
2022/03/03 04:35:06;;;;;;;37.50;31.23;;;;;;;-3.02;99.40;102285.84;5032188;28;20460;-49
2022/03/03 04:37:34;;;;;;;38.73;27.70;;;;;;;-3.03;99.66;102278.06;5033110;28;20807;-44
2022/03/03 04:40:04;;;;;;;29.57;26.50;;;;;;;-3.05;99.30;102285.97;5033126;28;20444;-48
2022/03/03 04:42:31;;;;;;;29.70;26.80;;;;;;;-3.07;99.59;102290.41;5032803;28;21091;-43
2022/03/03 04:44:59;;;;;;;30.10;27.10;;;;;;;-3.07;99.40;102290.41;5031706;28;20466;-47
2022/03/03 04:47:28;;;;;;;30.33;27.43;;;;;;;-3.07;99.16;102284.34;5032287;28;20531;-48
2022/03/03 04:49:55;;;;;;;34.10;28.33;;;;;;;-3.09;99.34;102288.78;5032976;28;20540;-48
2022/03/03 04:52:23;;;;;;;27.30;24.73;;;;;;;-3.10;99.47;102284.47;5048882;28;20988;-44
2022/03/03 04:54:51;;;;;;;26.77;24.57;;;;;;;-3.13;99.59;102282.00;5038423;28;20987;-44
2022/03/03 04:57:20;;;;;;;28.23;25.83;;;;;;;-3.13;99.51;102276.78;5033149;28;20524;-45
2022/03/03 04:59:48;;;;;;;34.60;30.70;;;;;;;-3.12;99.53;102278.50;5033550;28;20432;-43
2022/03/03 05:02:15;;;;;;;32.47;29.57;;;;;;;-3.12;99.37;102275.88;5033104;28;20443;-43
2022/03/03 05:04:43;;;;;;;32.17;29.10;;;;;;;-3.10;99.50;102276.66;5033235;28;20467;-44
2022/03/03 05:07:11;;;;;;;31.47;28.47;;;;;;;-3.09;99.28;102276.59;5033486;28;20434;-45
2022/03/03 05:09:39;;;;;;;33.53;30.47;;;;;;;-3.07;99.18;102271.28;5033576;28;20440;-48
2022/03/03 05:12:08;;;;;;;32.87;29.70;;;;;;;-3.07;99.45;102272.13;5033259;28;20476;-48
2022/03/03 05:14:37;;;;;;;32.77;29.97;;;;;;;-3.06;99.26;102280.81;5032899;28;20464;-45
2022/03/03 05:17:05;;;;;;;34.83;31.20;;;;;;;-3.09;99.48;102279.22;5033532;28;20526;-46
2022/03/03 05:19:32;;;;;;;31.50;28.60;;;;;;;-3.10;99.32;102284.47;5033671;28;20443;-50
2022/03/03 05:22:00;;;;;;;33.63;30.63;;;;;;;-3.09;99.65;102294.88;5033247;28;20439;-47
2022/03/03 05:24:27;;;;;;;35.33;31.90;;;;;;;-3.09;99.29;102294.00;5032047;28;20473;-45
2022/03/03 05:26:55;;;;;;;35.40;31.80;;;;;;;-3.04;99.36;102297.25;5032705;28;20929;-49
2022/03/03 05:29:23;;;;;;;35.50;32.27;;;;;;;-3.02;99.04;102300.66;5033072;28;20440;-43
2022/03/03 05:31:52;;;;;;;35.17;31.83;;;;;;;-3.00;99.19;102310.09;5033051;28;20486;-46
2022/03/03 05:34:19;;;;;;;35.50;32.20;;;;;;;-2.95;98.77;102313.31;5032518;28;20555;-46
2022/03/03 05:36:47;;;;;;;38.10;33.60;;;;;;;-2.89;98.55;102314.78;5032850;28;20970;-44
2022/03/03 05:39:16;;;;;;;37.60;33.73;;;;;;;-2.81;98.10;102310.91;5032667;28;20530;-47
2022/03/03 05:41:44;;;;;;;40.23;35.90;;;;;;;-2.71;97.91;102313.94;5032815;28;20438;-46
2022/03/03 05:44:13;;;;;;;38.97;35.40;;;;;;;-2.68;98.01;102324.22;5032207;28;20464;-44
2022/03/03 05:46:43;;;;;;;38.00;34.00;;;;;;;-2.65;98.41;102329.31;5032974;28;20830;-46
2022/03/03 05:49:12;;;;;;;39.30;35.10;;;;;;;-2.61;98.10;102332.63;5032626;28;20447;-46
2022/03/03 05:51:40;;;;;;;42.23;36.10;;;;;;;-2.53;97.75;102339.16;5032654;28;20507;-46
2022/03/03 05:54:07;;;;;;;39.83;36.07;;;;;;;-2.45;97.15;102341.41;5032239;28;20988;-46
2022/03/03 05:56:39;;;;;;;39.77;36.03;;;;;;;-2.34;96.46;102336.50;5032848;28;20432;-48
2022/03/03 05:59:08;;;;;;;41.00;36.87;;;;;;;-2.27;96.35;102330.06;5032497;28;20801;-48
2022/03/03 06:01:38;;;;;;;41.83;37.87;;;;;;;-2.22;96.54;102346.34;5032673;28;20435;-47
2022/03/03 06:04:08;;;;;;;39.57;35.70;;;;;;;-2.20;97.41;102347.13;5032016;28;20479;-44
2022/03/03 06:06:38;;;;;;;43.07;38.80;;;;;;;-2.21;97.77;102348.03;5032940;28;20436;-45
2022/03/03 06:09:10;;;;;;;37.87;34.30;;;;;;;-2.27;98.02;102345.75;5032090;28;21047;-46
2022/03/03 06:12:00;;;;;;;39.23;35.57;;;;;;;-2.35;98.61;102350.47;5032319;28;20476;-43
2022/03/03 06:14:36;;;;;;;36.70;33.20;;;;;;;-2.45;99.10;102354.47;5031871;28;20475;-47
2022/03/03 06:17:04;;;;;;;38.33;34.63;;;;;;;-2.53;98.94;102357.44;5032479;28;20431;-44
2022/03/03 06:19:39;;;;;;;36.83;32.80;;;;;;;-2.57;98.76;102361.09;5032280;28;20490;-44
2022/03/03 06:22:09;;;;;;;35.63;32.63;;;;;;;-2.60;98.90;102350.00;5032337;28;20419;-46
2022/03/03 06:24:37;;;;;;;36.30;32.97;;;;;;;-2.60;98.43;102360.44;5031432;28;20472;-48
2022/03/03 06:27:05;;;;;;;35.20;32.37;;;;;;;-2.56;98.59;102359.34;5031874;28;20432;-49
2022/03/03 06:29:33;;;;;;;38.10;34.50;;;;;;;-2.49;97.93;102361.59;5032200;28;20865;-44
2022/03/03 06:32:02;;;;;;;38.90;34.97;;;;;;;-2.38;97.45;102371.53;5032301;28;20480;-46
2022/03/03 06:34:30;;;;;;;37.60;33.80;;;;;;;-2.24;97.14;102362.09;5031683;28;20853;-42
2022/03/03 06:36:58;;;;;;;37.30;33.90;;;;;;;-2.08;96.37;102356.13;5031856;28;20440;-45
2022/03/03 06:39:27;;;;;;;39.40;35.63;;;;;;;-1.91;96.29;102362.19;5031902;28;20432;-48
2022/03/03 06:41:54;;;;;;;40.80;36.90;;;;;;;-1.75;95.47;102367.50;5032136;28;20443;-44
2022/03/03 06:44:23;;;;;;;39.90;35.90;;;;;;;-1.61;95.93;102370.25;5031649;28;20468;-46
2022/03/03 06:46:50;;;;;;;41.43;37.30;;;;;;;-1.49;96.54;102361.75;5032188;28;20771;-47
2022/03/03 06:49:18;;;;;;;40.10;36.27;;;;;;;-1.34;95.48;102360.97;5031582;28;20933;-45
2022/03/03 06:51:48;;;;;;;36.83;33.67;;;;;;;-1.22;95.39;102367.31;5031499;28;20973;-48
2022/03/03 06:54:18;;;;;;;40.10;36.27;;;;;;;-1.09;95.31;102367.50;5031007;28;21186;-46
2022/03/03 06:56:48;;;;;;;38.87;35.47;;;;;;;-1.02;95.46;102361.88;5031810;28;20428;-45
2022/03/03 06:59:17;;;;;;;39.60;35.60;;;;;;;-0.92;95.84;102365.66;5031563;28;20436;-44
2022/03/03 07:01:48;;;;;;;41.00;37.20;;;;;;;-0.85;95.57;102367.03;5031802;28;20428;-45
2022/03/03 07:04:17;;;;;;;43.60;38.90;;;;;;;-0.75;95.13;102357.75;5031249;28;20476;-49
2022/03/03 07:06:46;;;;;;;42.60;38.00;;;;;;;-0.65;95.35;102369.41;5031579;28;20435;-42
2022/03/03 07:09:14;;;;;;;94.00;43.13;;;;;;;-0.71;95.00;102382.84;5031643;28;20440;-44
2022/03/03 07:11:43;;;;;;;162.73;47.40;;;;;;;-0.71;95.70;102381.97;5031650;28;20475;-45
2022/03/03 07:14:13;;;;;;;71.77;40.10;;;;;;;-0.71;93.93;102379.38;5031143;28;20491;-48
2022/03/03 07:16:43;;;;;;;83.63;41.83;;;;;;;-0.67;93.40;102394.84;5031725;28;20458;-45
2022/03/03 07:19:26;;;;;;;97.27;44.60;;;;;;;-0.66;92.16;102398.31;5031226;28;20934;-49
2022/03/03 07:22:07;;;;;;;76.03;43.63;;;;;;;-0.54;92.15;102389.78;5031795;28;20819;-45
2022/03/03 07:24:42;;;;;;;237.00;55.50;;;;;;;-0.59;92.07;102397.03;5030976;28;20468;-42
2022/03/03 07:27:18;;;;;;;368.33;71.33;;;;;;;-0.63;90.52;102406.81;5031298;28;20432;-50
2022/03/03 07:29:55;;;;;;;319.67;62.00;;;;;;;-0.65;89.87;102403.47;5031477;28;20435;-46
2022/03/03 07:32:31;;;;;;;223.60;53.73;;;;;;;-0.65;89.07;102403.47;5031272;28;21102;-45
2022/03/03 07:35:02;;;;;;;298.13;63.03;;;;;;;-0.62;88.59;102407.69;5031030;28;20456;-45
2022/03/03 07:37:35;;;;;;;288.23;58.73;;;;;;;-0.63;88.50;102406.81;5031261;28;20531;-49
2022/03/03 07:40:07;;;;;;;243.87;60.60;;;;;;;-0.61;87.94;102406.75;5031229;28;20450;-45
2022/03/03 07:42:36;;;;;;;245.93;58.97;;;;;;;-0.53;86.61;102408.94;5031546;28;20507;-49
2022/03/03 07:45:07;;;;;;;237.37;56.83;;;;;;;-0.45;85.94;102407.63;5030752;28;20464;-45
2022/03/03 07:47:35;;;;;;;244.13;53.57;;;;;;;-0.34;84.73;102409.63;5031246;28;20428;-43
2022/03/03 07:50:04;;;;;;;211.87;53.30;;;;;;;-0.33;86.07;102411.31;5034859;28;20436;-45
2022/03/03 07:52:33;;;;;;;327.13;67.27;;;;;;;-0.36;86.34;102408.88;5034735;28;20475;-44
2022/03/03 07:55:00;;;;;;;261.73;58.43;;;;;;;-0.30;85.88;102408.53;5034593;28;20476;-49
2022/03/03 07:57:39;;;;;;;224.67;55.33;;;;;;;-0.24;84.35;102400.31;5035011;28;20528;-43
2022/03/03 08:00:10;;;;;;;275.63;57.83;;;;;;;-0.18;83.94;102410.47;5034879;28;20992;-49
2022/03/03 08:02:43;;;;;;;192.33;51.67;;;;;;;-0.16;83.29;102404.19;5034807;28;21032;-43
2022/03/03 08:05:11;;;;;;;192.70;55.57;;;;;;;-0.06;82.58;102405.34;5034321;28;20467;-47
2022/03/03 08:07:44;;;;;;;205.43;58.60;;;;;;;0.02;80.99;102415.41;5034633;28;20498;-47
2022/03/03 08:10:13;;;;;;;186.23;51.17;;;;;;;0.04;81.47;102400.41;5034818;28;20432;-42
2022/03/03 08:12:42;;;;;;;205.97;58.73;;;;;;;0.13;80.10;102407.75;5034512;28;20562;-43
2022/03/03 08:15:13;;;;;;;233.50;56.67;;;;;;;0.16;80.48;102398.84;5034201;28;20810;-44
2022/03/03 08:17:44;;;;;;;204.77;55.97;;;;;;;0.27;80.97;102407.78;5034343;28;20427;-51
2022/03/03 08:20:12;;;;;;;162.37;53.70;;;;;;;0.36;81.48;102406.44;5034779;28;20463;-48
2022/03/03 08:22:40;;;;;;;156.27;49.83;;;;;;;0.37;83.54;102402.84;5034498;28;20539;-46
2022/03/03 08:25:10;;;;;;;195.93;55.60;;;;;;;0.43;83.95;102402.47;5034364;28;20466;-47
2022/03/03 08:27:39;;;;;;;247.87;56.93;;;;;;;0.48;84.81;102393.41;5034252;28;20993;-43
2022/03/03 08:30:09;;;;;;;408.63;79.63;;;;;;;0.50;84.48;102399.41;5034507;28;20440;-44
2022/03/03 08:32:40;;;;;;;193.63;54.70;;;;;;;0.53;83.52;102407.13;5034129;28;20482;-45
2022/03/03 08:35:14;;;;;;;208.90;53.63;;;;;;;0.70;81.40;102405.22;5033850;28;20483;-47
2022/03/03 08:37:43;;;;;;;130.60;50.30;;;;;;;0.74;81.22;102410.22;5034037;28;20546;-43
2022/03/03 08:40:13;;;;;;;126.60;48.97;;;;;;;0.86;80.95;102411.25;5034075;28;20530;-44
2022/03/03 08:42:48;;;;;;;110.07;47.10;;;;;;;0.84;83.53;102399.97;5033845;28;20454;-42
2022/03/03 08:45:19;;;;;;;107.97;45.77;;;;;;;0.84;84.22;102408.72;5033443;28;20550;-47
2022/03/03 08:47:55;;;;;;;89.63;44.93;;;;;;;0.89;83.28;102416.31;5033968;28;20439;-44
2022/03/03 08:50:32;;;;;;;111.60;45.73;;;;;;;0.91;82.06;102409.19;5033942;28;20450;-45
2022/03/03 08:53:01;;;;;;;51.13;40.30;;;;;;;0.91;82.57;102409.19;5033678;28;20520;-45
2022/03/03 08:55:29;;;;;;;105.97;45.43;;;;;;;1.04;81.48;102407.50;5033444;28;21306;-46
2022/03/03 08:57:58;;;;;;;129.10;44.93;;;;;;;1.09;82.12;102406.28;5033590;28;20942;-46
2022/03/03 09:00:27;;;;;;;94.43;42.40;;;;;;;1.15;82.49;102401.56;5032652;28;20483;-46
2022/03/03 09:02:56;;;;;;;154.27;49.90;;;;;;;1.12;83.14;102407.88;5033637;28;20535;-44
2022/03/03 09:05:23;;;;;;;236.27;57.13;;;;;;;1.20;84.16;102412.63;5033167;28;20488;-47
2022/03/03 09:07:51;;;;;;;112.03;46.70;;;;;;;1.10;85.67;102404.50;5033221;28;20455;-47
2022/03/03 09:10:19;;;;;;;51.20;40.40;;;;;;;1.05;84.01;102407.41;5033703;28;20444;-44
2022/03/03 09:12:47;;;;;;;45.30;38.90;;;;;;;1.21;81.05;102409.91;5033488;28;20586;-42
2022/03/03 09:15:15;;;;;;;43.23;38.10;;;;;;;1.41;79.31;102408.66;5033018;28;20460;-45
2022/03/03 09:17:43;;;;;;;41.00;37.77;;;;;;;1.58;78.85;102416.34;5033207;28;20424;-48
2022/03/03 09:20:15;;;;;;;57.50;39.83;;;;;;;1.46;84.92;102410.06;5032246;28;20523;-49
2022/03/03 09:22:44;;;;;;;42.20;36.57;;;;;;;1.34;90.39;102421.38;5033755;28;20547;-47
2022/03/03 09:25:12;;;;;;;42.87;38.27;;;;;;;1.30;89.06;102421.63;5032812;28;20460;-48
2022/03/03 09:27:41;;;;;;;272.40;63.23;;;;;;;1.34;87.07;102424.00;5032929;28;20438;-46
2022/03/03 09:30:10;;;;;;;195.73;55.23;;;;;;;1.36;85.98;102419.47;5033251;28;20443;-43
2022/03/03 09:32:39;;;;;;;88.00;45.53;;;;;;;1.35;85.23;102430.06;5032890;28;20531;-47
2022/03/03 09:35:07;;;;;;;180.63;52.00;;;;;;;1.37;83.50;102430.84;5032641;28;20837;-48
2022/03/03 09:37:37;;;;;;;149.10;55.10;;;;;;;1.31;82.48;102425.97;5032682;28;21016;-49
2022/03/03 09:40:07;;;;;;;93.87;47.43;;;;;;;1.62;75.60;102421.28;5033033;28;20551;-49
2022/03/03 09:42:35;;;;;;;93.73;46.00;;;;;;;1.74;78.21;102434.59;5032949;28;20468;-45
2022/03/03 09:45:02;;;;;;;116.60;47.23;;;;;;;1.73;83.37;102425.88;5032140;28;20459;-43
2022/03/03 09:47:30;;;;;;;61.00;43.43;;;;;;;1.80;86.50;102415.78;5032516;28;20938;-44
2022/03/03 09:49:58;;;;;;;45.27;40.70;;;;;;;1.84;89.46;102422.53;5032929;28;20432;-43
2022/03/03 09:52:26;;;;;;;48.53;41.20;;;;;;;1.86;90.78;102423.28;5032711;28;20436;-43
2022/03/03 09:54:56;;;;;;;41.90;38.37;;;;;;;1.99;91.20;102421.53;5032252;28;20554;-48
2022/03/03 09:57:26;;;;;;;41.97;37.80;;;;;;;2.06;92.29;102405.25;5032442;28;20779;-44
2022/03/03 09:59:53;;;;;;;55.90;39.97;;;;;;;2.17;92.43;102405.41;5032579;28;20446;-46
2022/03/03 10:02:21;;;;;;;43.50;38.17;;;;;;;2.18;95.13;102407.06;5032696;28;20437;-48
2022/03/03 10:04:49;;;;;;;45.17;36.63;;;;;;;2.23;96.19;102401.50;5032136;28;20491;-45
2022/03/03 10:07:16;;;;;;;40.87;36.67;;;;;;;2.43;95.81;102389.63;5032327;28;20519;-45
2022/03/03 10:12:45;;;;;;;54.73;39.07;;;;;;;2.55;96.57;102402.81;5031792;28;21008;-44
2022/03/03 10:15:13;;;;;;;142.70;44.87;;;;;;;2.48;98.30;102398.06;5031767;28;21005;-41
2022/03/03 10:17:41;;;;;;;64.63;35.97;;;;;;;2.53;98.57;102401.22;5032120;28;20478;-45
2022/03/03 10:20:09;;;;;;;38.60;34.60;;;;;;;2.62;98.23;102397.97;5032289;28;20436;-44
2022/03/03 10:22:45;;;;;;;37.70;33.63;;;;;;;2.80;97.00;102396.69;5031794;28;20543;-46
2022/03/03 10:25:15;;;;;;;36.53;32.80;;;;;;;2.96;98.41;102392.03;5031702;28;20460;-51
2022/03/03 10:27:44;;;;;;;37.00;32.93;;;;;;;3.18;98.87;102399.28;5031881;28;20436;-45
2022/03/03 10:30:11;;;;;;;75.17;35.00;;;;;;;3.08;100.00;102392.97;5032151;28;20535;-49
2022/03/03 10:32:39;;;;;;;35.03;32.20;;;;;;;3.16;100.00;102398.56;5032008;28;20897;-45
2022/03/03 10:35:15;;;;;;;38.30;34.43;;;;;;;3.29;100.00;102396.72;5031415;28;20476;-47
2022/03/03 10:37:44;;;;;;;34.60;31.13;;;;;;;3.34;99.89;102398.06;5031921;28;20982;-43
2022/03/03 10:40:13;;;;;;;33.50;30.43;;;;;;;3.12;99.61;102394.44;5032132;28;20436;-45
2022/03/03 10:42:45;;;;;;;39.23;31.90;;;;;;;3.23;99.30;102400.63;5031853;28;20981;-46
2022/03/03 10:45:15;;;;;;;35.63;32.73;;;;;;;3.02;99.86;102401.28;5031206;28;21046;-46
2022/03/03 10:47:47;;;;;;;35.20;31.33;;;;;;;3.06;99.70;102405.41;5031572;28;20843;-44
2022/03/03 10:50:14;;;;;;;33.47;30.93;;;;;;;3.22;99.89;102401.59;5031956;28;20511;-46
2022/03/03 10:52:44;;;;;;;75.67;34.73;;;;;;;3.09;99.59;102397.28;5031611;28;20452;-42
2022/03/03 10:55:14;;;;;;;60.43;34.20;;;;;;;3.08;99.71;102404.34;5031157;28;20535;-45
2022/03/03 10:57:44;;;;;;;35.97;32.40;;;;;;;3.12;100.00;102404.97;5031456;28;20432;-47
2022/03/03 11:00:14;;;;;;;34.67;32.07;;;;;;;3.09;99.62;102410.47;5031623;28;20442;-44
2022/03/03 11:02:45;;;;;;;36.50;33.57;;;;;;;3.36;99.72;102405.88;5031802;28;20821;-45
2022/03/03 11:05:14;;;;;;;35.10;32.57;;;;;;;3.68;99.45;102414.09;5031214;28;20468;-49
2022/03/03 11:07:44;;;;;;;34.67;32.20;;;;;;;3.62;99.39;102409.28;5031389;28;21088;-46
2022/03/03 11:10:14;;;;;;;37.60;34.90;;;;;;;3.87;99.55;102410.03;5031555;28;20432;-47
2022/03/03 11:12:43;;;;;;;37.60;35.10;;;;;;;3.74;98.48;102408.38;5031369;28;20456;-50
2022/03/03 11:15:14;;;;;;;36.47;34.07;;;;;;;3.66;98.37;102416.88;5031029;28;20507;-47
2022/03/03 11:17:42;;;;;;;36.60;34.13;;;;;;;3.70;98.16;102422.78;5031591;28;20494;-45
2022/03/03 11:20:14;;;;;;;35.53;33.43;;;;;;;3.55;96.97;102405.41;5031471;28;20447;-44